createdAt,value
2018-07-04T00:00:04.769Z,20.40
2018-07-04T00:02:44.590Z,20.50
2018-07-04T00:05:24.116Z,20.50
2018-07-04T00:08:03.978Z,20.50
2018-07-04T00:10:43.854Z,20.60
2018-07-04T00:13:23.466Z,20.60
2018-07-04T00:16:03.110Z,20.60
2018-07-04T00:18:42.617Z,20.50
2018-07-04T00:23:56.118Z,20.50
2018-07-04T00:26:35.831Z,20.50
2018-07-04T00:29:15.465Z,20.50
2018-07-04T00:34:28.811Z,20.50
2018-07-04T00:39:42.165Z,20.40
2018-07-04T00:44:55.466Z,20.40
2018-07-04T00:47:34.965Z,20.30
2018-07-04T00:50:14.779Z,20.30
2018-07-04T00:52:54.369Z,20.20
2018-07-04T00:55:33.882Z,20.30
2018-07-04T01:00:47.136Z,20.20
2018-07-04T01:06:00.382Z,20.20
2018-07-04T01:11:13.866Z,20.20
2018-07-04T01:13:53.698Z,20.10
2018-07-04T01:16:33.394Z,20.10
2018-07-04T01:19:13.031Z,20.10
2018-07-04T01:21:52.561Z,20.00
2018-07-04T01:24:32.202Z,20.10
2018-07-04T01:27:12.034Z,20.10
2018-07-04T01:29:51.761Z,20.10
2018-07-04T01:32:31.560Z,20.10
2018-07-04T01:35:11.155Z,20.00
2018-07-04T01:37:50.817Z,20.00
2018-07-04T01:48:57.369Z,19.70
2018-07-04T01:51:37.001Z,19.70
2018-07-04T01:54:16.611Z,19.70
2018-07-04T01:56:56.247Z,19.70
2018-07-04T01:59:35.915Z,19.70
2018-07-04T02:02:15.542Z,19.60
2018-07-04T02:04:55.134Z,19.60
2018-07-04T02:07:34.816Z,19.60
2018-07-04T02:12:48.131Z,19.50
2018-07-04T02:15:27.854Z,19.50
2018-07-04T02:18:07.582Z,19.50
2018-07-04T02:20:47.617Z,19.50
2018-07-04T02:23:27.396Z,19.40
2018-07-04T02:26:07.009Z,19.40
2018-07-04T02:28:46.618Z,19.30
2018-07-04T02:31:26.338Z,19.30
2018-07-04T02:34:06.041Z,19.20
2018-07-04T02:36:45.646Z,19.20
2018-07-04T02:39:25.447Z,19.10
2018-07-04T02:42:05.276Z,19.00
2018-07-04T02:47:24.159Z,19.00
2018-07-04T02:50:03.857Z,19.00
2018-07-04T02:52:43.635Z,19.00
2018-07-04T02:55:23.362Z,18.90
2018-07-04T02:58:02.990Z,18.90
2018-07-04T03:00:42.901Z,18.90
2018-07-04T03:03:22.582Z,18.90
2018-07-04T03:06:02.226Z,19.00
2018-07-04T03:08:41.758Z,18.90
2018-07-04T03:11:21.345Z,18.90
2018-07-04T03:14:01.000Z,18.90
2018-07-04T03:16:40.715Z,18.90
2018-07-04T03:19:20.412Z,18.90
2018-07-04T03:22:00.097Z,18.90
2018-07-04T03:24:39.851Z,18.90
2018-07-04T03:27:19.550Z,18.90
2018-07-04T03:29:59.132Z,18.90
2018-07-04T03:32:38.809Z,18.90
2018-07-04T03:35:18.501Z,19.00
2018-07-04T03:37:58.357Z,19.00
2018-07-04T03:40:38.197Z,19.00
2018-07-04T03:43:17.850Z,19.10
2018-07-04T03:45:57.562Z,19.10
2018-07-04T03:48:37.081Z,19.10
2018-07-04T03:51:16.746Z,19.20
2018-07-04T03:53:56.386Z,19.30
2018-07-04T03:56:35.965Z,19.40
2018-07-04T03:59:15.623Z,19.40
2018-07-04T04:01:55.238Z,19.50
2018-07-04T04:04:35.142Z,19.60
2018-07-04T04:07:15.719Z,19.60
2018-07-04T04:09:55.267Z,19.70
2018-07-04T04:15:08.589Z,19.90
2018-07-04T04:17:48.270Z,20.00
2018-07-04T04:20:28.024Z,20.20
2018-07-04T04:23:08.270Z,20.20
2018-07-04T04:25:47.918Z,20.30
2018-07-04T04:28:27.501Z,20.50
2018-07-04T04:31:07.305Z,20.70
2018-07-04T04:33:46.898Z,21.00
2018-07-04T04:36:26.582Z,22.20
2018-07-04T04:39:06.183Z,23.40
2018-07-04T04:41:45.865Z,23.50
2018-07-04T04:49:32.921Z,23.90
2018-07-04T04:52:12.643Z,23.10
2018-07-04T04:54:52.358Z,22.60
2018-07-04T04:57:31.890Z,22.40
2018-07-04T05:00:11.747Z,22.50
2018-07-04T05:02:51.483Z,22.50
2018-07-04T05:05:31.155Z,22.30
2018-07-04T05:08:10.818Z,22.40
2018-07-04T05:10:50.527Z,22.30
2018-07-04T05:13:30.226Z,22.10
2018-07-04T05:18:43.445Z,22.10
2018-07-04T05:21:23.723Z,22.50
2018-07-04T05:24:03.528Z,23.60
2018-07-04T05:26:43.142Z,24.70
2018-07-04T05:29:22.828Z,25.90
2018-07-04T05:32:02.479Z,26.40
2018-07-04T05:34:42.090Z,26.70
2018-07-04T05:37:21.656Z,27.30
2018-07-04T05:40:01.367Z,28.30
2018-07-04T05:42:41.025Z,29.30
2018-07-04T05:45:20.678Z,30.00
2018-07-04T05:48:00.385Z,30.40
2018-07-04T05:55:47.246Z,31.70
2018-07-04T05:58:27.030Z,32.30
2018-07-04T06:01:06.622Z,31.60
2018-07-04T06:06:20.245Z,29.20
2018-07-04T06:09:00.118Z,28.20
2018-07-04T06:11:39.734Z,28.40
2018-07-04T06:14:19.417Z,28.70
2018-07-04T06:16:59.295Z,29.30
2018-07-04T06:22:12.426Z,29.30
2018-07-04T06:24:52.146Z,29.10
2018-07-04T06:32:39.652Z,27.20
2018-07-04T06:35:19.146Z,26.80
2018-07-04T06:37:47.526Z,26.40
2018-07-04T06:40:15.124Z,26.00
2018-07-04T06:42:42.761Z,25.80
2018-07-04T06:45:10.123Z,25.80
2018-07-04T06:47:37.494Z,25.80
2018-07-04T06:50:04.821Z,25.70
2018-07-04T06:52:32.188Z,25.90
2018-07-04T06:54:59.548Z,26.10
2018-07-04T06:57:26.867Z,26.20
2018-07-04T06:59:54.244Z,26.20
2018-07-04T07:02:21.600Z,26.20
2018-07-04T07:07:36.647Z,26.50
2018-07-04T07:10:16.405Z,26.60
2018-07-04T07:12:56.079Z,26.50
2018-07-04T07:15:35.807Z,26.50
2018-07-04T07:18:15.629Z,26.80
2018-07-04T07:20:55.244Z,26.80
2018-07-04T07:23:34.869Z,26.90
2018-07-04T07:26:14.749Z,26.80
2018-07-04T07:28:54.357Z,27.00
2018-07-04T07:31:34.138Z,26.90
2018-07-04T07:34:13.937Z,26.90
2018-07-04T07:36:53.603Z,26.70
2018-07-04T07:39:33.129Z,26.60
2018-07-04T07:42:12.749Z,26.40
2018-07-04T07:44:52.246Z,26.50
2018-07-04T07:47:31.799Z,26.60
2018-07-04T07:50:11.326Z,26.60
2018-07-04T07:52:50.818Z,26.60
2018-07-04T07:55:30.508Z,26.60
2018-07-04T07:58:10.127Z,26.60
2018-07-04T08:00:49.802Z,26.40
2018-07-04T08:03:29.342Z,26.20
2018-07-04T08:06:08.997Z,26.20
2018-07-04T08:08:48.836Z,26.30
2018-07-04T08:11:28.433Z,26.30
2018-07-04T08:14:08.045Z,26.30
2018-07-04T08:16:47.664Z,26.30
2018-07-04T08:19:27.242Z,26.30
2018-07-04T08:22:07.057Z,26.30
2018-07-04T08:24:46.680Z,26.30
2018-07-04T08:32:34.534Z,26.80
2018-07-04T08:35:14.241Z,26.90
2018-07-04T08:37:53.859Z,27.00
2018-07-04T08:40:33.457Z,27.00
2018-07-04T08:43:13.038Z,26.80
2018-07-04T08:45:52.760Z,27.00
2018-07-04T08:48:32.202Z,27.20
2018-07-04T08:51:11.921Z,27.20
2018-07-04T08:53:51.582Z,27.20
2018-07-04T08:56:31.344Z,27.10
2018-07-04T08:59:11.037Z,27.00
2018-07-04T09:01:50.907Z,27.00
2018-07-04T09:04:30.413Z,27.10
2018-07-04T09:07:10.059Z,27.00
2018-07-04T09:09:49.570Z,27.00
2018-07-04T09:12:29.222Z,27.00
2018-07-04T09:15:08.846Z,27.00
2018-07-04T09:17:48.466Z,27.20
2018-07-04T09:20:27.927Z,27.30
2018-07-04T09:23:07.570Z,27.50
2018-07-04T09:25:47.299Z,27.50
2018-07-04T09:28:27.204Z,27.40
2018-07-04T09:31:06.850Z,27.60
2018-07-04T09:33:46.575Z,27.80
2018-07-04T09:39:00.072Z,27.50
2018-07-04T09:41:39.787Z,27.30
2018-07-04T09:44:19.541Z,27.30
2018-07-04T09:46:59.252Z,27.20
2018-07-04T09:49:39.032Z,26.90
2018-07-04T09:52:18.610Z,26.70
2018-07-04T09:54:59.468Z,26.40
2018-07-04T09:57:39.188Z,26.40
2018-07-04T10:00:23.094Z,26.10
2018-07-04T10:03:02.854Z,25.70
2018-07-04T10:05:42.537Z,25.40
2018-07-04T10:08:22.194Z,25.00
2018-07-04T10:11:02.031Z,24.30
2018-07-04T10:13:41.685Z,23.80
2018-07-04T10:16:21.491Z,23.50
2018-07-04T10:19:01.178Z,23.10
2018-07-04T10:21:40.878Z,22.80
2018-07-04T10:24:20.584Z,22.50
2018-07-04T10:27:00.517Z,22.30
2018-07-04T10:29:40.496Z,22.30
2018-07-04T10:32:20.377Z,22.20
2018-07-04T10:34:59.962Z,22.00
2018-07-04T10:37:40.618Z,21.90
2018-07-04T10:40:20.258Z,21.80
2018-07-04T10:42:59.992Z,21.80
2018-07-04T10:45:39.795Z,21.60
2018-07-04T10:48:19.560Z,21.50
2018-07-04T10:50:59.390Z,21.30
2018-07-04T10:53:39.003Z,21.20
2018-07-04T10:56:18.726Z,20.80
2018-07-04T10:58:58.503Z,20.40
2018-07-04T11:01:38.065Z,20.40
2018-07-04T11:04:18.179Z,20.40
2018-07-04T11:06:57.831Z,20.30
2018-07-04T11:09:37.510Z,20.40
2018-07-04T11:12:17.151Z,20.50
2018-07-04T11:14:57.254Z,20.50
2018-07-04T11:17:37.027Z,20.60
2018-07-04T11:20:16.856Z,20.60
2018-07-04T11:22:56.440Z,20.70
2018-07-04T11:25:36.186Z,20.80
2018-07-04T11:28:15.853Z,20.80
2018-07-04T11:33:29.363Z,20.90
2018-07-04T11:36:10.508Z,21.00
2018-07-04T11:38:50.031Z,21.10
2018-07-04T11:44:03.573Z,21.30
2018-07-04T11:46:30.942Z,21.50
2018-07-04T11:49:01.014Z,21.70
2018-07-04T11:51:29.552Z,21.90
2018-07-04T11:53:57.273Z,22.30
2018-07-04T11:56:24.795Z,22.50
2018-07-04T11:58:52.136Z,22.80
2018-07-04T12:01:19.486Z,23.10
2018-07-04T12:03:59.399Z,23.60
2018-07-04T12:06:39.162Z,24.00
2018-07-04T12:09:06.977Z,24.40
2018-07-04T12:11:34.350Z,24.50
2018-07-04T12:14:01.791Z,24.70
2018-07-04T12:16:29.747Z,25.00
2018-07-04T12:18:57.082Z,25.10
2018-07-04T12:23:52.158Z,25.40
2018-07-04T12:26:20.314Z,25.50
2018-07-04T12:28:47.650Z,25.80
2018-07-04T12:31:14.989Z,25.80
2018-07-04T12:33:42.553Z,25.90
2018-07-04T12:36:09.886Z,25.90
2018-07-04T12:38:37.243Z,26.00
2018-07-04T12:43:32.328Z,26.20
2018-07-04T12:45:59.594Z,26.10
2018-07-04T12:48:26.987Z,26.20
2018-07-04T12:50:54.318Z,26.20
2018-07-04T12:53:22.664Z,26.10
2018-07-04T12:56:02.303Z,26.30
2018-07-04T12:58:41.807Z,26.40
2018-07-04T13:01:21.497Z,26.40
2018-07-04T13:04:01.178Z,26.30
2018-07-04T13:06:40.822Z,26.30
2018-07-04T13:09:20.432Z,26.40
2018-07-04T13:12:01.383Z,26.50
2018-07-04T13:14:41.197Z,26.50
2018-07-04T13:17:20.841Z,26.50
2018-07-04T13:20:00.600Z,26.40
2018-07-04T13:22:40.331Z,26.40
2018-07-04T13:25:20.852Z,26.90
2018-07-04T13:28:00.538Z,27.10
2018-07-04T13:30:40.410Z,27.20
2018-07-04T13:33:20.286Z,27.30
2018-07-04T13:36:00.039Z,27.30
2018-07-04T13:38:39.595Z,27.40
2018-07-04T13:41:19.242Z,27.40
2018-07-04T13:43:58.888Z,27.40
2018-07-04T13:46:38.551Z,27.20
2018-07-04T13:49:18.219Z,27.10
2018-07-04T13:51:57.954Z,26.90
2018-07-04T13:54:37.790Z,26.70
2018-07-04T13:57:17.411Z,26.60
2018-07-04T13:59:57.122Z,26.40
2018-07-04T14:02:36.765Z,26.30
2018-07-04T14:05:16.470Z,26.20
2018-07-04T14:07:56.270Z,26.20
2018-07-04T14:10:36.071Z,26.10
2018-07-04T14:13:15.646Z,26.00
2018-07-04T14:15:55.289Z,25.70
2018-07-04T14:18:34.978Z,25.60
2018-07-04T14:21:14.649Z,25.40
2018-07-04T14:23:54.956Z,25.20
2018-07-04T14:26:34.760Z,25.00
2018-07-04T14:29:14.381Z,24.80
2018-07-04T14:31:54.033Z,24.60
2018-07-04T14:34:33.731Z,24.40
2018-07-04T14:37:13.331Z,24.30
2018-07-04T14:39:53.583Z,24.10
2018-07-04T14:42:33.332Z,23.90
2018-07-04T14:45:12.967Z,23.70
2018-07-04T14:47:52.758Z,23.70
2018-07-04T14:50:32.645Z,23.70
2018-07-04T14:53:12.243Z,23.80
2018-07-04T14:55:52.022Z,24.00
2018-07-04T14:58:31.619Z,24.10
2018-07-04T15:03:45.122Z,24.60
2018-07-04T15:06:24.981Z,24.90
2018-07-04T15:09:04.886Z,25.40
2018-07-04T15:11:44.733Z,25.90
2018-07-04T15:14:24.484Z,26.30
2018-07-04T15:17:04.407Z,26.50
2018-07-04T15:19:43.958Z,25.80
2018-07-04T15:24:57.495Z,25.30
2018-07-04T15:27:37.099Z,25.10
2018-07-04T15:30:16.755Z,24.60
2018-07-04T15:32:56.452Z,24.30
2018-07-04T15:35:36.013Z,24.20
2018-07-04T15:38:15.812Z,23.80
2018-07-04T15:40:55.339Z,23.50
2018-07-04T15:43:35.118Z,23.70
2018-07-04T15:46:14.842Z,24.00
2018-07-04T15:48:54.483Z,24.30
2018-07-04T15:51:34.800Z,24.50
2018-07-04T15:54:14.605Z,24.50
2018-07-04T15:56:54.314Z,24.60
2018-07-04T15:59:34.079Z,24.80
2018-07-04T16:02:13.687Z,24.90
2018-07-04T16:04:53.214Z,24.70
2018-07-04T16:07:32.934Z,24.70
2018-07-04T16:10:12.769Z,24.60
2018-07-04T16:12:54.248Z,24.70
2018-07-04T16:15:34.113Z,24.80
2018-07-04T16:18:13.954Z,24.70
2018-07-04T16:20:53.794Z,24.70
2018-07-04T16:23:33.806Z,24.60
2018-07-04T16:26:13.535Z,24.40
2018-07-04T16:28:53.174Z,24.20
2018-07-04T16:31:32.745Z,24.10
2018-07-04T16:34:12.445Z,24.30
2018-07-04T16:36:51.970Z,24.20
2018-07-04T16:39:31.892Z,23.90
2018-07-04T16:42:11.761Z,23.60
2018-07-04T16:44:51.355Z,23.40
2018-07-04T16:47:31.118Z,23.30
2018-07-04T16:50:10.814Z,23.10
2018-07-04T16:52:50.771Z,23.10
2018-07-04T16:55:30.655Z,23.10
2018-07-04T16:58:10.425Z,23.30
2018-07-04T17:00:50.175Z,23.60
2018-07-04T17:03:29.817Z,23.90
2018-07-04T17:06:10.059Z,24.30
2018-07-04T17:08:49.779Z,24.50
2018-07-04T17:11:29.435Z,24.60
2018-07-04T17:14:09.099Z,24.60
2018-07-04T17:16:49.714Z,24.60
2018-07-04T17:22:03.774Z,24.40
2018-07-04T17:24:43.603Z,24.30
2018-07-04T17:27:23.339Z,24.10
2018-07-04T17:30:02.946Z,24.00
2018-07-04T17:32:42.737Z,24.00
2018-07-04T17:35:22.348Z,24.00
2018-07-04T17:38:02.965Z,23.80
2018-07-04T17:40:42.883Z,23.80
2018-07-04T17:43:22.725Z,23.80
2018-07-04T17:46:02.422Z,23.80
2018-07-04T17:48:42.168Z,23.70
2018-07-04T17:51:21.829Z,23.70
2018-07-04T17:56:35.285Z,23.40
2018-07-04T17:59:15.002Z,23.30
2018-07-04T18:01:54.658Z,23.30
2018-07-04T18:07:08.037Z,23.20
2018-07-04T18:09:47.797Z,23.10
2018-07-04T18:12:27.493Z,23.10
2018-07-04T18:15:07.230Z,23.00
2018-07-04T18:17:46.907Z,23.00
2018-07-04T18:20:26.635Z,22.90
2018-07-04T18:23:06.542Z,22.80
2018-07-04T18:25:46.248Z,22.60
2018-07-04T18:28:25.898Z,22.60
2018-07-04T18:31:05.751Z,22.40
2018-07-04T18:33:45.342Z,22.30
2018-07-04T18:36:25.118Z,22.20
2018-07-04T18:39:05.086Z,22.10
2018-07-04T18:41:44.816Z,22.00
2018-07-04T18:44:24.525Z,21.90
2018-07-04T18:47:04.103Z,21.80
2018-07-04T18:49:43.822Z,21.70
2018-07-04T18:52:23.356Z,21.60
2018-07-04T18:55:03.053Z,21.60
2018-07-04T18:57:42.710Z,21.50
2018-07-04T19:00:22.337Z,21.50
2018-07-04T19:03:02.071Z,21.40
2018-07-04T19:10:49.243Z,21.30
2018-07-04T19:13:29.168Z,21.30
2018-07-04T19:16:09.048Z,21.30
2018-07-04T19:18:48.887Z,21.30
2018-07-04T19:21:28.721Z,21.20
2018-07-04T19:24:08.414Z,21.10
2018-07-04T19:26:48.110Z,21.10
2018-07-04T19:29:29.869Z,21.10
2018-07-04T19:32:11.237Z,21.10
2018-07-04T19:34:51.267Z,21.00
2018-07-04T19:37:31.137Z,21.00
2018-07-04T19:40:10.733Z,21.00
2018-07-04T19:42:50.463Z,21.00
2018-07-04T19:45:30.221Z,21.00
2018-07-04T19:50:48.833Z,21.10
2018-07-04T19:53:29.907Z,21.10
2018-07-04T19:56:09.656Z,21.10
2018-07-04T19:58:49.320Z,21.10
2018-07-04T20:01:29.026Z,21.10
2018-07-04T20:04:08.963Z,21.10
2018-07-04T20:06:48.580Z,21.00
2018-07-04T20:09:28.331Z,21.00
2018-07-04T20:12:08.114Z,20.90
2018-07-04T20:14:47.891Z,20.80
2018-07-04T20:17:27.511Z,20.80
2018-07-04T20:20:07.556Z,20.70
2018-07-04T20:22:47.294Z,20.60
2018-07-04T20:28:00.426Z,20.60
2018-07-04T20:33:14.027Z,20.60
2018-07-04T20:35:53.714Z,20.50
2018-07-04T20:38:33.306Z,20.50
2018-07-04T20:41:12.997Z,20.60
2018-07-04T20:43:52.716Z,20.60
2018-07-04T20:46:32.521Z,20.50
2018-07-04T20:49:12.427Z,20.50
2018-07-04T20:51:52.033Z,20.50
2018-07-04T20:54:31.778Z,20.40
2018-07-04T20:57:11.333Z,20.30
2018-07-04T20:59:50.966Z,20.20
2018-07-04T21:02:31.980Z,20.10
2018-07-04T21:05:11.926Z,20.00
2018-07-04T21:07:51.466Z,20.00
2018-07-04T21:10:31.199Z,19.90
2018-07-04T21:13:10.799Z,19.90
2018-07-04T21:15:50.513Z,19.90
2018-07-04T21:18:30.137Z,19.90
2018-07-04T21:21:09.710Z,19.80
2018-07-04T21:23:49.447Z,19.80
2018-07-04T21:26:29.028Z,19.80
2018-07-04T21:29:10.175Z,19.80
2018-07-04T21:31:49.827Z,19.80
2018-07-04T21:34:29.798Z,19.80
2018-07-04T21:37:10.055Z,19.80
2018-07-04T21:39:53.763Z,19.80
2018-07-04T21:42:33.642Z,19.90
2018-07-04T21:45:14.719Z,19.90
2018-07-04T21:47:54.404Z,19.90
2018-07-04T21:50:33.894Z,19.90
2018-07-04T21:53:13.647Z,19.80
2018-07-04T21:58:28.083Z,19.80
2018-07-04T22:01:07.679Z,19.80
2018-07-04T22:03:47.443Z,19.70
2018-07-04T22:06:26.982Z,19.70
2018-07-04T22:09:10.368Z,19.70
2018-07-04T22:11:50.096Z,19.70
2018-07-04T22:14:29.719Z,19.60
2018-07-04T22:17:09.191Z,19.60
2018-07-04T22:19:48.917Z,19.60
2018-07-04T22:22:28.546Z,19.50
2018-07-04T22:25:08.280Z,19.40
2018-07-04T22:27:47.987Z,19.40
2018-07-04T22:30:27.651Z,19.40
2018-07-04T22:33:07.486Z,19.40
2018-07-04T22:38:20.970Z,19.40
2018-07-04T22:41:00.703Z,19.30
2018-07-04T22:43:40.264Z,19.20
2018-07-04T22:46:19.983Z,19.20
2018-07-04T22:48:59.675Z,19.20
2018-07-04T22:51:39.470Z,19.20
2018-07-04T22:56:52.729Z,19.20
2018-07-04T22:59:32.427Z,19.20
2018-07-04T23:02:12.072Z,19.30
2018-07-04T23:04:51.766Z,19.30
2018-07-04T23:07:31.280Z,19.30
2018-07-04T23:10:12.467Z,19.30
2018-07-04T23:12:52.208Z,19.30
2018-07-04T23:18:06.150Z,19.30
2018-07-04T23:20:45.764Z,19.20
2018-07-04T23:23:25.366Z,19.20
2018-07-04T23:26:05.015Z,19.20
2018-07-04T23:31:18.269Z,19.20
2018-07-04T23:33:58.017Z,19.20
2018-07-04T23:36:37.566Z,19.10
2018-07-04T23:39:17.066Z,19.10
2018-07-04T23:41:56.714Z,19.10
2018-07-04T23:44:36.529Z,19.10
2018-07-04T23:47:16.190Z,19.10
2018-07-04T23:49:56.856Z,19.20
2018-07-04T23:52:36.523Z,19.20
2018-07-04T23:55:16.133Z,19.10
2018-07-04T23:57:55.954Z,19.10
